Weather History for Marshall, MN

Change the Weather History Date:

Saturday, July 6, 2013

  Actual Average Record
Temperature  
Mean Temperature 80 °F -  
Max Temperature 87 °F 84 °F 99 °F (1948)
Min Temperature 73 °F 61 °F 48 °F (1997)
Cooling Degree Days 15    
Growing Degree Days 30 (Base 50)    
Moisture  
Dew Point 64 °F    
Average Humidity 60    
Maximum Humidity 74    
Minimum Humidity 48    
Precipitation  
Precipitation 0.00 in - - ()
Sea Level Pressure  
Sea Level Pressure 29.80 in    
Wind  
Wind Speed 10 mph (South)    
Max Wind Speed 20 mph    
Max Gust Speed 25 mph    
Visibility 10 miles    
Events      
Averages and records for this station are not official NWS values.
T = Trace of Precipitation, MM = Missing Value Source: NWS Daily Summary

Daily Weather History Graph

Daily Weather History Graph

Search for Another Location

Airport:

Trip Planner

Search our weather history database for the weather conditions in past years. The results will help you decide how hot, cold, wet, or windy it might be!

Date:

Astronomy

Jul. 06, 2013 Rise Set
Actual Time 5:45 AM CDT 9:10 PM CDT
Civil Twilight 5:09 AM CDT 9:46 PM CDT
Nautical Twilight 4:22 AM CDT 10:33 PM CDT
Astronomical Twilight 3:22 AM CDT 11:33 PM CDT
Moon 4:34 AM CDT (7/6) 7:49 PM CDT (7/6)
Length of Visible Light 16h 36m
Length of Day
15h 24m
Waning Crescent, 2% of the Moon is Illuminated
Jul 6
Waning Crescent
Jul 8
New
Jul 15
First Quarter
Jul 22
Full
Jul 29
Last Quarter

Hourly Weather History & Observations

Time (CDT) Temp. Heat Index Dew Point Humidity Pressure Visibility Wind Dir Wind Speed Gust Speed Precip Events Conditions
12:15 AM 77.0 °F - 60.8 °F 57% 29.82 in 10.0 mi South 8.1 mph - N/A   Clear
12:35 AM 77.0 °F - 62.6 °F 61% 29.81 in 10.0 mi South 9.2 mph - N/A   Clear
12:55 AM 75.2 °F - 60.8 °F 61% 29.81 in 10.0 mi South 10.4 mph - N/A   Clear
1:15 AM 75.2 °F - 60.8 °F 61% 29.81 in 10.0 mi South 10.4 mph - N/A   Clear
1:35 AM 75.2 °F - 60.8 °F 61% 29.81 in 10.0 mi South 10.4 mph - N/A   Clear
1:55 AM 75.2 °F - 60.8 °F 61% 29.81 in 10.0 mi South 11.5 mph - N/A   Clear
2:15 AM 75.2 °F - 60.8 °F 61% 29.81 in 10.0 mi South 10.4 mph - N/A   Clear
2:35 AM 75.2 °F - 60.8 °F 61% 29.81 in 10.0 mi South 10.4 mph - N/A   Clear
2:55 AM 75.2 °F - 60.8 °F 61% 29.81 in 10.0 mi South 9.2 mph - N/A   Clear
3:15 AM 75.2 °F - 60.8 °F 61% 29.80 in 10.0 mi South 16.1 mph 20.7 mph N/A   Partly Cloudy
3:35 AM 75.2 °F - 60.8 °F 61% 29.80 in 10.0 mi SSW 16.1 mph 20.7 mph N/A   Clear
3:55 AM 75.2 °F - 60.8 °F 61% 29.79 in 10.0 mi SSW 16.1 mph 23.0 mph N/A   Clear
4:15 AM 75.2 °F - 60.8 °F 61% 29.79 in 10.0 mi SSW 17.3 mph 23.0 mph N/A   Clear
4:35 AM 75.2 °F - 60.8 °F 61% 29.79 in 10.0 mi SSW 18.4 mph - N/A   Partly Cloudy
4:55 AM 75.2 °F - 60.8 °F 61% 29.79 in 10.0 mi SSW 19.6 mph 23.0 mph N/A   Scattered Clouds
5:15 AM 75.2 °F - 60.8 °F 61% 29.79 in 10.0 mi SSW 18.4 mph - N/A   Overcast
5:35 AM 75.2 °F - 60.8 °F 61% 29.79 in 10.0 mi SSW 17.3 mph 25.3 mph N/A   Mostly Cloudy
5:55 AM 75.2 °F - 60.8 °F 61% 29.79 in 10.0 mi SSW 19.6 mph 24.2 mph N/A   Partly Cloudy
6:15 AM 75.2 °F - 60.8 °F 61% 29.80 in 10.0 mi SSW 18.4 mph 24.2 mph N/A   Scattered Clouds
6:35 AM 75.2 °F - 59.0 °F 57% 29.81 in 10.0 mi SSW 12.7 mph - N/A   Partly Cloudy
6:55 AM 75.2 °F - 60.8 °F 61% 29.82 in 10.0 mi SW 4.6 mph - N/A   Clear
7:15 AM 75.2 °F - 60.8 °F 61% 29.82 in 10.0 mi SSW 5.8 mph - N/A   Partly Cloudy
7:35 AM 73.4 °F - 60.8 °F 65% 29.82 in 10.0 mi South 5.8 mph - N/A   Partly Cloudy
7:55 AM 73.4 °F - 60.8 °F 65% 29.81 in 10.0 mi SSE 6.9 mph - N/A   Clear
8:15 AM 75.2 °F - 60.8 °F 61% 29.82 in 10.0 mi South 4.6 mph - N/A   Clear
8:35 AM 75.2 °F - 59.0 °F 57% 29.81 in 10.0 mi South 10.4 mph - N/A   Clear
8:55 AM 75.2 °F - 60.8 °F 61% 29.80 in 10.0 mi South 8.1 mph - N/A   Clear
9:15 AM 75.2 °F - 60.8 °F 61% 29.80 in 10.0 mi South 10.4 mph - N/A   Clear
9:35 AM 75.2 °F - 60.8 °F 61% 29.80 in 10.0 mi SSE 10.4 mph - N/A   Clear
9:55 AM 78.8 °F - 60.8 °F 54% 29.79 in 10.0 mi South 10.4 mph - N/A   Clear
10:15 AM 80.6 °F 81.8 °F 62.6 °F 54% 29.79 in 10.0 mi SSW 11.5 mph - N/A   Clear
10:35 AM 80.6 °F 81.5 °F 60.8 °F 51% 29.79 in 10.0 mi South 13.8 mph - N/A   Clear
10:55 AM 80.6 °F 81.5 °F 60.8 °F 51% 29.79 in 10.0 mi SSW 15.0 mph 20.7 mph N/A   Clear
11:15 AM 82.4 °F 83.4 °F 62.6 °F 51% 29.80 in 10.0 mi SSW 16.1 mph - N/A   Clear
11:35 AM 84.2 °F 85.0 °F 62.6 °F 48% 29.79 in 10.0 mi South 12.7 mph - N/A   Clear
11:55 AM 82.4 °F 83.9 °F 64.4 °F 54% 29.79 in 10.0 mi South 15.0 mph - N/A   Clear
12:15 PM 82.4 °F 83.4 °F 62.6 °F 51% 29.79 in 10.0 mi SSW 13.8 mph - N/A   Clear
12:35 PM 82.4 °F 83.4 °F 62.6 °F 51% 29.80 in 10.0 mi South 13.8 mph - N/A   Clear
12:55 PM 82.4 °F 83.4 °F 62.6 °F 51% 29.80 in 10.0 mi South 10.4 mph - N/A   Clear
1:15 PM 84.2 °F 85.6 °F 64.4 °F 51% 29.79 in 10.0 mi SSW 9.2 mph - N/A   Clear
1:35 PM 84.2 °F 85.6 °F 64.4 °F 51% 29.79 in 10.0 mi SSW 8.1 mph - N/A   Clear
1:55 PM 84.2 °F 85.6 °F 64.4 °F 51% 29.79 in 10.0 mi South 9.2 mph - N/A   Clear
2:15 PM 84.2 °F 86.6 °F 66.2 °F 55% 29.79 in 10.0 mi SSW 8.1 mph - N/A   Clear
2:35 PM 86.0 °F 88.2 °F 66.2 °F 51% 29.78 in 10.0 mi South 8.1 mph - N/A   Clear
2:55 PM 86.0 °F 88.2 °F 66.2 °F 51% 29.79 in 10.0 mi SSW 5.8 mph - N/A   Clear
3:15 PM 87.8 °F 90.4 °F 66.2 °F 49% 29.78 in 10.0 mi SSW 9.2 mph - N/A   Clear
3:35 PM 86.0 °F 88.2 °F 66.2 °F 51% 29.79 in 10.0 mi SW 6.9 mph - N/A   Clear
3:55 PM 86.0 °F 88.2 °F 66.2 °F 51% 29.79 in 10.0 mi SSW 5.8 mph - N/A   Clear
4:15 PM 86.0 °F 89.4 °F 68.0 °F 55% 29.79 in 10.0 mi SSW 3.5 mph - N/A   Clear
4:35 PM 84.2 °F 87.3 °F 68.0 °F 58% 29.79 in 10.0 mi SSW 5.8 mph - N/A   Clear
4:55 PM 82.4 °F 87.2 °F 71.6 °F 70% 29.78 in 10.0 mi WSW 3.5 mph - N/A   Clear
5:15 PM 82.4 °F 87.2 °F 71.6 °F 70% 29.78 in 10.0 mi Calm Calm - N/A   Clear
5:35 PM 82.4 °F 88.2 °F 73.4 °F 74% 29.78 in 10.0 mi Calm Calm - N/A   Clear
5:55 PM 82.4 °F 87.2 °F 71.6 °F 70% 29.78 in 10.0 mi Calm Calm - N/A   Clear
6:15 PM 82.4 °F 86.3 °F 69.8 °F 66% 29.78 in 10.0 mi Calm Calm - N/A   Clear
6:35 PM 82.4 °F 87.2 °F 71.6 °F 70% 29.77 in 10.0 mi ESE 3.5 mph - N/A   Clear
6:55 PM 84.2 °F 88.4 °F 69.8 °F 62% 29.77 in 10.0 mi Calm Calm - N/A   Clear
7:15 PM 84.2 °F 88.4 °F 69.8 °F 62% 29.78 in 10.0 mi SSE 4.6 mph - N/A   Clear
7:35 PM 84.2 °F 88.4 °F 69.8 °F 62% 29.77 in 10.0 mi SSE 3.5 mph - N/A   Clear
7:55 PM 82.4 °F 86.3 °F 69.8 °F 66% 29.78 in 10.0 mi SSE 4.6 mph - N/A   Scattered Clouds
8:15 PM 82.4 °F 86.3 °F 69.8 °F 66% 29.79 in 10.0 mi SSE 4.6 mph - N/A   Partly Cloudy
8:35 PM 82.4 °F 86.3 °F 69.8 °F 66% 29.79 in 10.0 mi South 8.1 mph - N/A   Clear
8:55 PM 82.4 °F 85.4 °F 68.0 °F 62% 29.79 in 10.0 mi South 6.9 mph - N/A   Clear
9:15 PM 80.6 °F 82.7 °F 66.2 °F 61% 29.79 in 10.0 mi South 6.9 mph - N/A   Clear
9:35 PM 80.6 °F 82.7 °F 66.2 °F 61% 29.80 in 10.0 mi South 6.9 mph - N/A   Clear
9:55 PM 78.8 °F - 66.2 °F 65% 29.80 in 10.0 mi SSE 6.9 mph - N/A   Clear
10:15 PM 78.8 °F - 66.2 °F 65% 29.80 in 10.0 mi SSE 6.9 mph - N/A   Clear
10:35 PM 77.0 °F - 66.2 °F 69% 29.81 in 10.0 mi SSE 5.8 mph - N/A   Clear
10:55 PM 77.0 °F - 66.2 °F 69% 29.80 in 10.0 mi SSE 8.1 mph - N/A   Clear
11:15 PM 75.2 °F - 66.2 °F 73% 29.81 in 10.0 mi South 6.9 mph - N/A   Clear
11:35 PM 75.2 °F - 66.2 °F 73% 29.81 in 10.0 mi South 4.6 mph - N/A   Clear
11:55 PM 75.2 °F - 66.2 °F 73% 29.81 in 10.0 mi SSW 8.1 mph - N/A   Clear